METAR Data
IDs: Format: Raw Decoded Include TAF

Data at: 1019 UTC 13 Aug 2022

EDVK 130950Z 08007KT 030V120 CAVOK 27/11 Q1018